createdAt,value
2018-12-14T00:00:08.395Z,17.27
2018-12-14T00:02:35.993Z,20.10
2018-12-14T00:05:03.549Z,18.30
2018-12-14T00:07:31.128Z,18.80
2018-12-14T00:09:58.721Z,19.13
2018-12-14T00:12:26.264Z,18.73
2018-12-14T00:14:54.150Z,18.77
2018-12-14T00:17:21.725Z,19.23
2018-12-14T00:19:49.304Z,20.33
2018-12-14T00:22:17.623Z,18.93
2018-12-14T00:24:47.165Z,18.40
2018-12-14T00:27:14.721Z,18.30
2018-12-14T00:29:42.321Z,19.33
2018-12-14T00:32:09.880Z,19.13
2018-12-14T00:34:37.438Z,20.60
2018-12-14T00:37:05.024Z,19.47
2018-12-14T00:39:32.583Z,20.03
2018-12-14T00:42:00.172Z,19.70
2018-12-14T00:44:27.759Z,19.70
2018-12-14T00:46:55.326Z,18.73
2018-12-14T00:49:22.961Z,19.67
2018-12-14T00:51:50.547Z,19.40
2018-12-14T00:54:18.131Z,19.30
2018-12-14T00:56:45.694Z,19.23
2018-12-14T00:59:13.279Z,18.97
2018-12-14T01:01:40.865Z,18.80
2018-12-14T01:04:08.452Z,18.93
2018-12-14T01:06:37.017Z,19.67
2018-12-14T01:09:04.613Z,20.80
2018-12-14T01:11:32.258Z,19.07
2018-12-14T01:13:59.836Z,20.40
2018-12-14T01:16:28.347Z,19.60
2018-12-14T01:18:55.929Z,18.80
2018-12-14T01:21:23.525Z,19.03
2018-12-14T01:23:51.169Z,19.93
2018-12-14T01:26:18.729Z,19.10
2018-12-14T01:28:46.962Z,19.40
2018-12-14T01:31:15.331Z,20.40
2018-12-14T01:33:43.689Z,19.20
2018-12-14T01:36:11.243Z,18.60
2018-12-14T01:38:40.760Z,18.70
2018-12-14T01:41:09.104Z,20.23
2018-12-14T01:43:36.693Z,19.40
2018-12-14T01:46:04.250Z,20.03
2018-12-14T01:48:33.781Z,18.50
2018-12-14T01:51:01.333Z,19.23
2018-12-14T01:53:28.916Z,20.33
2018-12-14T01:55:56.542Z,18.53
2018-12-14T01:58:26.033Z,19.47
2018-12-14T02:00:53.590Z,19.50
2018-12-14T02:03:21.176Z,20.97
2018-12-14T02:05:48.725Z,17.80
2018-12-14T02:08:18.308Z,18.37
2018-12-14T02:10:45.868Z,19.70
2018-12-14T02:13:13.467Z,19.70
2018-12-14T02:15:41.121Z,18.77
2018-12-14T02:18:08.715Z,19.30
2018-12-14T02:20:36.264Z,18.07
2018-12-14T02:23:03.860Z,20.10
2018-12-14T02:25:32.186Z,17.70
2018-12-14T02:27:59.769Z,17.13
2018-12-14T02:30:40.047Z,16.20
2018-12-14T02:33:10.361Z,13.20
2018-12-14T02:35:37.936Z,14.30
2018-12-14T02:38:05.552Z,13.40
2018-12-14T02:40:33.097Z,13.63
2018-12-14T02:43:00.689Z,15.97
2018-12-14T02:45:28.251Z,15.57
2018-12-14T02:47:55.852Z,16.13
2018-12-14T02:50:23.412Z,15.20
2018-12-14T02:52:52.960Z,15.80
2018-12-14T02:55:20.528Z,14.00
2018-12-14T02:57:48.124Z,12.60
2018-12-14T03:00:15.721Z,14.20
2018-12-14T03:02:43.276Z,13.87
2018-12-14T03:05:10.866Z,13.87
2018-12-14T03:07:39.221Z,13.03
2018-12-14T03:10:07.601Z,13.73
2018-12-14T03:12:35.148Z,14.50
2018-12-14T03:15:02.761Z,14.55
2018-12-14T03:17:30.346Z,13.53
2018-12-14T03:19:57.929Z,13.97
2018-12-14T03:22:25.565Z,13.63
2018-12-14T03:24:53.144Z,15.20
2018-12-14T03:27:20.699Z,13.63
2018-12-14T03:29:48.310Z,12.43
2018-12-14T03:32:15.869Z,14.90
2018-12-14T03:34:43.465Z,14.03
2018-12-14T03:37:11.018Z,14.87
2018-12-14T03:39:38.614Z,13.63
2018-12-14T03:42:06.170Z,13.57
2018-12-14T03:44:35.707Z,15.07
2018-12-14T03:47:03.262Z,15.87
2018-12-14T03:49:31.828Z,15.73
2018-12-14T03:52:00.149Z,15.97
2018-12-14T03:54:27.711Z,15.53
2018-12-14T03:56:55.305Z,16.00
2018-12-14T03:59:22.866Z,15.07
2018-12-14T04:01:51.231Z,17.13
2018-12-14T04:04:18.793Z,15.90
2018-12-14T04:06:46.471Z,14.97
2018-12-14T04:09:14.800Z,14.20
2018-12-14T04:11:44.284Z,13.97
2018-12-14T04:14:11.845Z,14.70
2018-12-14T04:16:39.405Z,14.57
2018-12-14T04:19:08.959Z,14.87
2018-12-14T04:21:37.315Z,14.93
2018-12-14T04:24:04.927Z,14.50
2018-12-14T04:26:32.488Z,17.10
2018-12-14T04:29:00.085Z,15.45
2018-12-14T04:31:27.714Z,16.30
2018-12-14T04:33:57.282Z,16.70
2018-12-14T04:36:24.843Z,16.10
2018-12-14T04:38:52.432Z,17.07
2018-12-14T04:41:24.144Z,17.17
2018-12-14T04:43:51.745Z,16.15
2018-12-14T04:46:19.296Z,16.83
2018-12-14T04:48:46.892Z,16.08
2018-12-14T04:51:14.450Z,16.40
2018-12-14T04:53:42.040Z,15.93
2018-12-14T04:56:09.590Z,15.00
2018-12-14T04:58:37.197Z,15.00
2018-12-14T05:01:04.745Z,17.47
2018-12-14T05:03:34.274Z,16.35
2018-12-14T05:06:02.789Z,16.90
2018-12-14T05:08:30.393Z,17.95
2018-12-14T05:10:58.973Z,18.53
2018-12-14T05:13:26.580Z,20.10
2018-12-14T05:15:54.160Z,22.30
2018-12-14T05:18:21.712Z,18.70
2018-12-14T05:20:50.058Z,16.60
2018-12-14T05:23:17.630Z,15.90
2018-12-14T05:25:45.224Z,15.93
2018-12-14T05:28:12.840Z,14.37
2018-12-14T05:30:40.387Z,13.50
2018-12-14T05:33:07.980Z,13.57
2018-12-14T05:35:36.321Z,13.77
2018-12-14T05:38:03.912Z,12.95
2018-12-14T05:40:31.477Z,13.70
2018-12-14T05:43:02.571Z,13.17
2018-12-14T05:45:27.653Z,14.00
2018-12-14T05:47:55.207Z,13.97
2018-12-14T05:50:22.896Z,15.07
2018-12-14T05:52:50.685Z,14.13
2018-12-14T05:55:19.015Z,14.83
2018-12-14T05:57:46.613Z,14.23
2018-12-14T06:00:14.225Z,14.82
2018-12-14T06:02:41.784Z,14.20
2018-12-14T06:05:09.401Z,13.90
2018-12-14T06:07:36.988Z,14.90
2018-12-14T06:10:04.585Z,14.18
2018-12-14T06:12:32.154Z,12.83
2018-12-14T06:14:59.752Z,13.00
2018-12-14T06:17:27.338Z,14.57
2018-12-14T06:19:54.940Z,15.25
2018-12-14T06:22:23.481Z,14.73
2018-12-14T06:24:51.079Z,15.97
2018-12-14T06:27:18.650Z,15.80
2018-12-14T06:29:46.252Z,14.38
2018-12-14T06:32:13.816Z,15.30
2018-12-14T06:34:41.429Z,15.63
2018-12-14T06:37:08.992Z,14.60
2018-12-14T06:39:36.576Z,18.62
2018-12-14T06:42:04.141Z,30.45
2018-12-14T06:44:31.732Z,52.08
2018-12-14T06:47:00.257Z,104.00
2018-12-14T06:49:27.862Z,56.65
2018-12-14T06:51:56.173Z,26.33
2018-12-14T06:54:23.723Z,24.67
2018-12-14T06:56:51.427Z,15.40
2018-12-14T06:59:20.313Z,15.45
2018-12-14T07:01:47.912Z,18.10
2018-12-14T07:04:15.556Z,29.10
2018-12-14T07:06:43.112Z,28.50
2018-12-14T07:09:10.669Z,17.60
2018-12-14T07:11:38.248Z,25.03
2018-12-14T07:14:05.808Z,22.23
2018-12-14T07:16:33.399Z,17.43
2018-12-14T07:19:00.954Z,15.00
2018-12-14T07:21:28.543Z,16.07
2018-12-14T07:23:56.095Z,14.25
2018-12-14T07:26:23.697Z,14.25
2018-12-14T07:28:51.264Z,14.85
2018-12-14T07:31:19.611Z,15.53
2018-12-14T07:33:47.164Z,14.98
2018-12-14T07:36:14.719Z,14.10
2018-12-14T07:38:48.000Z,14.13
2018-12-14T07:41:09.905Z,13.63
2018-12-14T07:43:37.494Z,15.13
2018-12-14T07:46:05.103Z,12.05
2018-12-14T07:48:32.692Z,13.80
2018-12-14T07:51:00.244Z,15.70
2018-12-14T07:53:27.833Z,18.45
2018-12-14T07:55:55.392Z,18.00
2018-12-14T07:58:22.985Z,14.63
2018-12-14T08:00:50.538Z,17.87
2018-12-14T08:03:18.128Z,14.85
2018-12-14T08:05:45.672Z,15.10
2018-12-14T08:08:13.271Z,16.80
2018-12-14T08:10:40.860Z,14.60
2018-12-14T08:13:08.443Z,14.90
2018-12-14T08:15:35.994Z,12.20
2018-12-14T08:18:03.603Z,15.10
2018-12-14T08:20:31.160Z,14.07
2018-12-14T08:22:58.748Z,13.77
2018-12-14T08:25:26.460Z,14.95
2018-12-14T08:27:54.070Z,14.30
2018-12-14T08:30:21.631Z,15.32
2018-12-14T08:32:49.979Z,14.87
2018-12-14T08:35:17.536Z,15.00
2018-12-14T08:37:45.116Z,14.10
2018-12-14T08:40:12.663Z,15.50
2018-12-14T08:42:40.272Z,15.40
2018-12-14T08:45:07.815Z,14.87
2018-12-14T08:47:35.369Z,15.30
2018-12-14T08:50:02.956Z,14.40
2018-12-14T08:52:30.591Z,13.97
2018-12-14T08:54:58.179Z,14.90
2018-12-14T08:57:25.729Z,17.07
2018-12-14T08:59:53.321Z,14.47
2018-12-14T09:02:20.917Z,15.27
2018-12-14T09:04:50.492Z,14.83
2018-12-14T09:07:24.426Z,17.80
2018-12-14T09:09:46.675Z,19.03
2018-12-14T09:12:14.288Z,17.43
2018-12-14T09:14:42.920Z,17.50
2018-12-14T09:17:10.467Z,20.23
2018-12-14T09:19:38.032Z,18.03
2018-12-14T09:22:05.623Z,15.77
2018-12-14T09:24:34.137Z,16.10
2018-12-14T09:27:01.749Z,16.87
2018-12-14T09:29:29.307Z,16.20
2018-12-14T09:31:56.898Z,16.37
2018-12-14T09:34:24.443Z,14.93
2018-12-14T09:36:52.025Z,14.13
2018-12-14T09:39:19.624Z,15.20
2018-12-14T09:41:47.167Z,15.50
2018-12-14T09:44:16.080Z,15.83
2018-12-14T09:46:43.668Z,15.10
2018-12-14T09:49:11.296Z,15.10
2018-12-14T09:51:38.839Z,16.60
2018-12-14T09:54:06.423Z,16.90
2018-12-14T09:56:33.986Z,15.50
2018-12-14T09:59:03.507Z,15.80
2018-12-14T10:01:32.004Z,16.23
2018-12-14T10:03:59.585Z,15.80
2018-12-14T10:06:28.100Z,16.37
2018-12-14T10:08:55.680Z,15.00
2018-12-14T10:11:24.971Z,15.37
2018-12-14T10:13:52.544Z,16.13
2018-12-14T10:16:21.040Z,15.33
2018-12-14T10:18:48.621Z,15.90
2018-12-14T10:21:16.186Z,17.20
2018-12-14T10:23:44.731Z,17.03
2018-12-14T10:26:11.384Z,18.57
2018-12-14T10:28:39.731Z,21.07
2018-12-14T10:31:07.284Z,19.10
2018-12-14T10:33:34.828Z,17.50
2018-12-14T10:36:02.424Z,18.60
2018-12-14T10:38:30.736Z,18.90
2018-12-14T10:40:58.322Z,18.40
2018-12-14T10:43:25.900Z,18.43
2018-12-14T10:45:53.439Z,19.00
2018-12-14T10:48:21.018Z,20.30
2018-12-14T10:50:48.610Z,18.87
2018-12-14T10:53:16.186Z,19.70
2018-12-14T10:55:44.708Z,18.80
2018-12-14T10:58:12.280Z,18.80
2018-12-14T11:00:46.284Z,19.23
2018-12-14T11:03:13.892Z,19.00
2018-12-14T11:05:41.449Z,19.17
2018-12-14T11:08:09.002Z,20.70
2018-12-14T11:10:36.582Z,18.23
2018-12-14T11:13:04.130Z,18.53
2018-12-14T11:15:31.761Z,18.73
2018-12-14T11:17:59.316Z,18.10
2018-12-14T11:20:26.895Z,17.77
2018-12-14T11:22:54.445Z,18.43
2018-12-14T11:25:22.024Z,19.70
2018-12-14T11:27:49.570Z,19.57
2018-12-14T11:30:17.164Z,18.87
2018-12-14T11:32:44.712Z,17.13
2018-12-14T11:35:13.300Z,17.77
2018-12-14T11:37:40.855Z,17.77
2018-12-14T11:40:08.400Z,18.03
2018-12-14T11:42:37.944Z,17.07
2018-12-14T11:45:06.266Z,17.53
2018-12-14T11:47:33.866Z,22.10
2018-12-14T11:50:01.453Z,19.77
2018-12-14T11:52:29.137Z,18.37
2018-12-14T11:54:56.724Z,19.40
2018-12-14T11:57:24.319Z,18.47
2018-12-14T11:59:51.948Z,18.33
2018-12-14T12:02:19.484Z,17.57
2018-12-14T12:04:47.072Z,17.03
2018-12-14T12:07:14.646Z,17.30
2018-12-14T12:09:42.233Z,16.80
2018-12-14T12:12:09.784Z,17.37
2018-12-14T12:14:37.325Z,16.70
2018-12-14T12:17:04.924Z,18.87
2018-12-14T12:19:38.615Z,17.73
2018-12-14T12:22:06.192Z,17.70
2018-12-14T12:24:35.700Z,16.87
2018-12-14T12:27:03.251Z,17.53
2018-12-14T12:29:30.845Z,16.90
2018-12-14T12:31:59.184Z,15.90
2018-12-14T12:34:26.761Z,16.83
2018-12-14T12:36:54.314Z,16.13
2018-12-14T12:39:22.745Z,17.77
2018-12-14T12:41:51.418Z,17.12
2018-12-14T12:44:19.004Z,15.33
2018-12-14T12:46:46.550Z,20.17
2018-12-14T12:49:14.133Z,24.07
2018-12-14T12:54:16.416Z,25.23
2018-12-14T12:56:43.976Z,24.20
2018-12-14T12:59:11.570Z,25.20
2018-12-14T13:01:41.084Z,30.27
2018-12-14T13:04:08.669Z,25.80
2018-12-14T13:06:36.217Z,25.97
2018-12-14T13:09:03.791Z,26.60
2018-12-14T13:11:31.370Z,24.27
2018-12-14T13:13:58.911Z,26.43
2018-12-14T13:16:26.568Z,24.97
2018-12-14T13:18:54.107Z,26.10
2018-12-14T13:21:21.682Z,25.17
2018-12-14T13:23:49.226Z,26.10
2018-12-14T13:26:16.804Z,25.27
2018-12-14T13:28:44.335Z,24.33
2018-12-14T13:31:11.920Z,24.43
2018-12-14T13:33:39.471Z,25.50
2018-12-14T13:36:07.984Z,25.53
2018-12-14T13:38:36.337Z,24.90
2018-12-14T13:41:03.931Z,23.00
2018-12-14T13:43:32.299Z,22.67
2018-12-14T13:46:00.779Z,27.30
2018-12-14T13:48:28.352Z,27.00
2018-12-14T13:50:55.928Z,23.30
2018-12-14T13:53:23.627Z,24.07
2018-12-14T13:55:51.168Z,23.70
2018-12-14T13:58:18.744Z,24.77
2018-12-14T14:00:46.382Z,24.70
2018-12-14T14:03:13.961Z,23.87
2018-12-14T14:05:41.500Z,23.35
2018-12-14T14:08:10.107Z,23.40
2018-12-14T14:10:37.668Z,23.77
2018-12-14T14:13:05.244Z,24.77
2018-12-14T14:15:32.824Z,25.57
2018-12-14T14:18:00.404Z,25.77
2018-12-14T14:20:27.952Z,26.27
2018-12-14T14:22:57.525Z,27.77
2018-12-14T14:25:30.909Z,29.33
2018-12-14T14:27:58.488Z,42.93
2018-12-14T14:30:26.040Z,29.20
2018-12-14T14:32:54.381Z,25.77
2018-12-14T14:35:21.960Z,28.20
2018-12-14T14:37:49.545Z,27.67
2018-12-14T14:40:17.108Z,28.03
2018-12-14T14:42:44.683Z,31.50
2018-12-14T14:45:12.227Z,28.23
2018-12-14T14:47:39.805Z,28.67
2018-12-14T14:50:07.354Z,28.13
2018-12-14T14:52:34.936Z,27.60
2018-12-14T14:55:02.496Z,28.00
2018-12-14T14:57:30.077Z,27.67
2018-12-14T14:59:58.388Z,28.20
2018-12-14T15:02:25.950Z,28.27
2018-12-14T15:04:53.545Z,30.53
2018-12-14T15:07:21.090Z,29.13
2018-12-14T15:09:48.675Z,26.47
2018-12-14T15:12:16.224Z,28.70
2018-12-14T15:14:44.753Z,27.67
2018-12-14T15:17:12.398Z,32.77
2018-12-14T15:19:40.001Z,27.67
2018-12-14T15:22:07.547Z,25.50
2018-12-14T15:24:35.123Z,27.87
2018-12-14T15:27:02.697Z,26.05
2018-12-14T15:29:30.284Z,25.83
2018-12-14T15:31:57.826Z,26.50
2018-12-14T15:34:25.409Z,27.37
2018-12-14T15:36:53.008Z,25.93
2018-12-14T15:39:22.541Z,24.90
2018-12-14T15:41:50.095Z,26.07
2018-12-14T15:44:17.648Z,26.60
2018-12-14T15:46:45.231Z,26.40
2018-12-14T15:49:12.792Z,26.27
2018-12-14T15:51:40.377Z,30.13
2018-12-14T15:54:07.944Z,26.87
2018-12-14T15:56:35.523Z,25.90
2018-12-14T15:59:03.065Z,25.63
2018-12-14T16:01:30.652Z,26.70
2018-12-14T16:03:58.213Z,26.80
2018-12-14T16:06:25.797Z,27.00
2018-12-14T16:08:53.344Z,26.60
2018-12-14T16:11:21.585Z,27.70
2018-12-14T16:13:48.520Z,29.63
2018-12-14T16:16:16.098Z,31.50
2018-12-14T16:18:44.474Z,29.00
2018-12-14T16:21:13.980Z,28.40
2018-12-14T16:23:41.529Z,35.13
2018-12-14T16:26:09.076Z,28.50
2018-12-14T16:28:36.656Z,27.53
2018-12-14T16:31:04.232Z,26.93
2018-12-14T16:33:32.578Z,27.43
2018-12-14T16:36:00.122Z,26.67
2018-12-14T16:38:27.713Z,25.13
2018-12-14T16:40:55.260Z,28.23
2018-12-14T16:43:23.832Z,25.73
2018-12-14T16:45:52.158Z,26.20
2018-12-14T16:48:19.740Z,25.80
2018-12-14T16:50:47.308Z,27.23
2018-12-14T16:53:14.888Z,33.80
2018-12-14T16:55:42.429Z,24.77
2018-12-14T16:58:10.012Z,26.27
2018-12-14T17:00:38.529Z,26.53
2018-12-14T17:03:08.037Z,27.00
2018-12-14T17:05:35.588Z,25.73
2018-12-14T17:08:05.309Z,27.03
2018-12-14T17:10:32.855Z,25.53
2018-12-14T17:13:00.447Z,26.07
2018-12-14T17:15:33.191Z,25.57
2018-12-14T17:17:56.644Z,27.17
2018-12-14T17:20:24.204Z,24.10
2018-12-14T17:22:51.780Z,26.60
2018-12-14T17:25:19.366Z,36.10
2018-12-14T17:27:46.949Z,36.73
2018-12-14T17:30:14.524Z,30.23
2018-12-14T17:32:42.875Z,30.00
2018-12-14T17:35:10.447Z,27.20
2018-12-14T17:37:38.035Z,27.47
2018-12-14T17:40:05.589Z,29.90
2018-12-14T17:42:33.137Z,35.53
2018-12-14T17:45:00.715Z,31.40
2018-12-14T17:47:28.299Z,37.33
2018-12-14T17:49:55.879Z,40.97
2018-12-14T17:52:24.376Z,44.97
2018-12-14T17:54:52.723Z,30.67
2018-12-14T17:57:20.275Z,28.43
2018-12-14T17:59:47.860Z,29.30
2018-12-14T18:02:15.408Z,27.00
2018-12-14T18:04:44.923Z,28.30
2018-12-14T18:07:12.474Z,28.70
2018-12-14T18:09:40.890Z,27.00
2018-12-14T18:12:08.429Z,28.20
2018-12-14T18:14:36.008Z,28.20
2018-12-14T18:17:03.559Z,27.80
2018-12-14T18:19:31.138Z,34.10
2018-12-14T18:21:58.692Z,31.10
2018-12-14T18:24:26.272Z,33.73
2018-12-14T18:26:53.812Z,40.80
2018-12-14T18:29:22.328Z,39.00
2018-12-14T18:31:49.903Z,41.70
2018-12-14T18:34:17.464Z,32.47
2018-12-14T18:36:45.044Z,42.00
2018-12-14T18:39:12.611Z,27.10
2018-12-14T18:41:40.196Z,28.40
2018-12-14T18:44:08.703Z,29.43
2018-12-14T18:46:36.276Z,29.60
2018-12-14T18:49:03.817Z,29.57
2018-12-14T18:51:31.392Z,29.17
2018-12-14T18:53:59.879Z,30.83
2018-12-14T18:56:27.436Z,29.10
2018-12-14T18:58:54.991Z,28.60
2018-12-14T19:01:22.580Z,28.97
2018-12-14T19:03:50.129Z,33.27
2018-12-14T19:06:17.671Z,32.97
2018-12-14T19:08:47.195Z,38.70
2018-12-14T19:11:14.775Z,35.10
2018-12-14T19:13:42.358Z,33.80
2018-12-14T19:16:09.900Z,28.27
2018-12-14T19:18:37.487Z,28.37
2018-12-14T19:21:05.045Z,28.17
2018-12-14T19:23:33.384Z,26.87
2018-12-14T19:26:00.939Z,28.80
2018-12-14T19:28:28.516Z,27.10
2018-12-14T19:30:57.032Z,27.50
2018-12-14T19:33:24.614Z,26.90
2018-12-14T19:35:52.159Z,28.17
2018-12-14T19:38:19.736Z,27.60
2018-12-14T19:40:47.343Z,28.40
2018-12-14T19:43:14.919Z,28.77
2018-12-14T19:45:42.501Z,27.90
2018-12-14T19:48:10.075Z,28.10
2018-12-14T19:50:37.629Z,27.80
2018-12-14T19:53:05.212Z,27.17
2018-12-14T19:55:32.801Z,27.43
2018-12-14T19:58:01.158Z,25.40
2018-12-14T20:00:28.721Z,28.20
2018-12-14T20:02:56.300Z,28.07
2018-12-14T20:05:23.888Z,27.83
2018-12-14T20:07:51.521Z,28.70
2018-12-14T20:10:19.107Z,27.50
2018-12-14T20:12:46.680Z,28.50
2018-12-14T20:15:14.224Z,29.50
2018-12-14T20:17:41.804Z,27.03
2018-12-14T20:20:09.388Z,28.03
2018-12-14T20:22:36.936Z,27.87
2018-12-14T20:25:05.295Z,27.20
2018-12-14T20:27:32.879Z,28.43
2018-12-14T20:30:00.462Z,25.47
2018-12-14T20:32:28.008Z,26.37
2018-12-14T20:34:55.603Z,28.37
2018-12-14T20:37:23.152Z,28.67
2018-12-14T20:39:50.735Z,28.47
2018-12-14T20:42:19.243Z,27.57
2018-12-14T20:44:46.820Z,31.07
2018-12-14T20:47:14.493Z,28.10
2018-12-14T20:49:42.077Z,27.80
2018-12-14T20:52:09.621Z,29.40
2018-12-14T20:54:37.225Z,28.23
2018-12-14T20:57:05.748Z,29.63
2018-12-14T20:59:33.322Z,33.10
2018-12-14T21:02:00.907Z,33.00
2018-12-14T21:04:28.473Z,33.00
2018-12-14T21:06:56.060Z,33.60
2018-12-14T21:09:24.372Z,39.57
2018-12-14T21:11:51.953Z,33.43
2018-12-14T21:14:19.500Z,31.40
2018-12-14T21:16:48.044Z,36.67
2018-12-14T21:19:16.358Z,33.80
2018-12-14T21:21:43.953Z,32.73
2018-12-14T21:24:11.501Z,28.70
2018-12-14T21:26:39.084Z,31.17
2018-12-14T21:29:06.694Z,30.47
2018-12-14T21:31:34.225Z,27.90
2018-12-14T21:34:01.807Z,27.30
2018-12-14T21:36:29.412Z,26.17
2018-12-14T21:38:56.988Z,27.57
2018-12-14T21:41:25.548Z,29.30
2018-12-14T21:43:53.139Z,27.77
2018-12-14T21:46:21.699Z,26.83
2018-12-14T21:48:49.280Z,26.70
2018-12-14T21:51:17.766Z,28.87
2018-12-14T21:53:45.351Z,27.17
2018-12-14T21:56:12.935Z,27.87
2018-12-14T21:58:40.484Z,27.73
2018-12-14T22:01:08.112Z,28.53
2018-12-14T22:03:35.655Z,28.00
2018-12-14T22:06:03.204Z,29.30
2018-12-14T22:08:30.779Z,27.30
2018-12-14T22:10:58.357Z,28.93
2018-12-14T22:13:25.943Z,27.10
2018-12-14T22:15:54.287Z,27.03
2018-12-14T22:18:23.810Z,28.67
2018-12-14T22:20:51.942Z,28.80
2018-12-14T22:23:18.985Z,29.80
2018-12-14T22:25:46.535Z,28.40
2018-12-14T22:28:14.119Z,29.67
2018-12-14T22:30:41.663Z,28.27
2018-12-14T22:33:09.211Z,26.90
2018-12-14T22:35:37.726Z,28.70
2018-12-14T22:38:05.324Z,28.50
2018-12-14T22:40:32.903Z,29.07
2018-12-14T22:43:00.483Z,28.10
2018-12-14T22:45:28.036Z,28.10
2018-12-14T22:47:55.617Z,28.67
2018-12-14T22:50:23.205Z,28.53
2018-12-14T22:52:50.784Z,27.40
2018-12-14T22:55:18.328Z,24.80
2018-12-14T22:57:45.914Z,24.77
2018-12-14T23:00:14.482Z,24.47
2018-12-14T23:02:42.096Z,23.07
2018-12-14T23:05:11.368Z,23.67
2018-12-14T23:07:38.945Z,24.70
2018-12-14T23:10:06.495Z,24.63
2018-12-14T23:12:37.123Z,24.53
2018-12-14T23:15:04.680Z,23.93
2018-12-14T23:17:32.300Z,23.47
2018-12-14T23:19:59.858Z,23.27
2018-12-14T23:22:27.441Z,23.70
2018-12-14T23:24:56.000Z,25.43
2018-12-14T23:27:23.554Z,23.93
2018-12-14T23:29:51.137Z,22.60
2018-12-14T23:32:18.712Z,22.17
2018-12-14T23:34:46.293Z,23.97
2018-12-14T23:37:14.151Z,23.50
2018-12-14T23:39:41.474Z,23.10
2018-12-14T23:42:09.017Z,22.80
2018-12-14T23:44:36.594Z,23.90
2018-12-14T23:47:04.156Z,23.33
2018-12-14T23:49:31.734Z,24.63
2018-12-14T23:52:00.999Z,23.20
2018-12-14T23:54:28.579Z,23.20
2018-12-14T23:56:57.077Z,22.93
2018-12-14T23:59:24.652Z,23.40
